Terminal Aerodrome Forecast
Issued by NWS Bismarck, ND

Home | Current Version | Previous Version | Graphics & Text | Print | Product List | Glossary On
Versions: 1 2 3 4 5 6 7 8 9 10 11 12 13 14 15 16 17 18 19 20 21 22
000
FTUS43 KBIS 281200 AAA
TAFBIS
TAF AMD
KBIS 281245Z 2813/2912 04003KT P6SM VCFG OVC008
     FM281400 18005KT P6SM BKN015
     FM281700 20007KT P6SM SCT025 SCT050
     FM282300 18005KT P6SM SCT050 SCT100
     FM290300 15004KT P6SM SCT050
     FM291000 33005KT P6SM BKN080=

USA.gov is the U.S. government's official web portal to all federal, state and local government web resources and services.